Archival Weather

Al Ahsa

Al Ahsa, Saudi Arabia (OEAH)

Report from: Friday, May 26, 2023 6:00 AM +03
Current time: Friday, July 19, 2024 5:44 AM +03

Current weather – Weather history – Daily summaries
Weather forecast

Temperature29.0°C (84.2°F)
Heat index28.0°C (82.4°F)
Dew point9.0°C (48.2°F)
Winds 3 kts (1.5 m/s, 3.5 mph) South (190°)
Visibility4.3 mi. (7 km)
Altimeter29.80 in.Hg (1009 mB)
Relative humidity29 %
Density altitude1,916 ft. (584 m)
Remarks No significant changes expected in the next two hours
Flight conditions Marginal Visual Meteorological Conditions
Raw dataOEAH 260300Z 19003KT 7000 NSC 29/09 Q1009 NOSIG
An error has occurred. This application may no longer respond until reloaded. Reload 🗙